createdAt,value
2023-02-15T00:00:42.258Z,12.30
2023-02-15T00:05:50.515Z,13.90
2023-02-15T00:11:10.867Z,15.50
2023-02-15T00:16:19.023Z,14.40
2023-02-15T00:21:27.524Z,9.50
2023-02-15T00:26:36.526Z,7.40
2023-02-15T00:31:45.400Z,7.00
2023-02-15T00:36:54.223Z,8.90
2023-02-15T00:42:09.092Z,9.30
2023-02-15T00:47:17.340Z,6.40
2023-02-15T00:52:25.773Z,6.20
2023-02-15T00:57:34.181Z,3.90
2023-02-15T01:02:42.443Z,5.30
2023-02-15T01:07:52.994Z,5.30
2023-02-15T01:13:02.833Z,4.40
2023-02-15T01:18:11.043Z,5.10
2023-02-15T01:23:19.175Z,5.10
2023-02-15T01:28:29.788Z,4.70
2023-02-15T01:33:39.666Z,5.80
2023-02-15T01:38:48.360Z,5.10
2023-02-15T01:43:58.187Z,4.20
2023-02-15T01:49:13.617Z,5.70
2023-02-15T01:54:26.805Z,6.90
2023-02-15T01:59:38.043Z,10.10
2023-02-15T02:04:50.252Z,7.10
2023-02-15T02:10:00.586Z,4.00
2023-02-15T02:15:12.003Z,3.30
2023-02-15T02:20:40.946Z,3.10
2023-02-15T02:26:21.334Z,3.50
2023-02-15T02:32:10.831Z,4.60
2023-02-15T02:37:27.391Z,4.00
2023-02-15T02:42:42.601Z,5.00
2023-02-15T02:47:53.866Z,4.10
2023-02-15T02:53:04.754Z,5.10
2023-02-15T02:58:19.101Z,4.10
2023-02-15T03:03:32.050Z,4.20
2023-02-15T03:08:45.926Z,4.70
2023-02-15T03:13:54.813Z,5.20
2023-02-15T03:19:08.705Z,3.50
2023-02-15T03:24:20.526Z,6.10
2023-02-15T03:34:36.977Z,6.30
2023-02-15T03:39:50.533Z,4.60
2023-02-15T03:45:05.092Z,5.50
2023-02-15T03:50:31.846Z,4.50
2023-02-15T03:55:40.858Z,6.30
2023-02-15T04:01:16.197Z,6.90
2023-02-15T04:06:23.669Z,6.30
2023-02-15T04:11:31.083Z,6.40
2023-02-15T04:16:39.128Z,6.80
2023-02-15T04:22:06.472Z,8.20
2023-02-15T04:27:15.730Z,7.10
2023-02-15T04:32:24.475Z,7.10
2023-02-15T04:37:32.869Z,9.60
2023-02-15T04:42:41.530Z,7.20
2023-02-15T04:47:49.899Z,7.60
2023-02-15T04:52:58.333Z,7.80
2023-02-15T04:58:06.652Z,10.10
2023-02-15T05:03:15.252Z,7.50
2023-02-15T05:08:24.759Z,11.70
2023-02-15T05:13:33.796Z,7.60
2023-02-15T05:18:41.328Z,9.20
2023-02-15T05:23:48.586Z,7.20
2023-02-15T05:28:56.816Z,7.60
2023-02-15T05:34:05.566Z,9.10
2023-02-15T05:39:13.918Z,7.00
2023-02-15T05:44:22.604Z,7.00
2023-02-15T05:49:32.123Z,11.20
2023-02-15T05:54:41.343Z,5.90
2023-02-15T05:59:49.561Z,11.00
2023-02-15T06:04:57.755Z,9.40
2023-02-15T06:10:06.200Z,9.00
2023-02-15T06:15:15.361Z,11.50
2023-02-15T06:20:23.726Z,11.10
2023-02-15T06:25:31.853Z,15.40
2023-02-15T06:30:39.317Z,11.90
2023-02-15T06:35:47.570Z,13.50
2023-02-15T06:40:55.811Z,11.80
2023-02-15T06:46:04.349Z,10.30
2023-02-15T06:51:12.920Z,10.10
2023-02-15T06:56:20.524Z,15.10
2023-02-15T07:01:27.937Z,13.30
2023-02-15T07:06:37.328Z,11.20
2023-02-15T07:12:04.155Z,7.40
2023-02-15T07:17:32.822Z,9.20
2023-02-15T07:22:41.196Z,8.10
2023-02-15T07:27:49.120Z,4.70
2023-02-15T07:33:16.785Z,5.60
2023-02-15T07:38:25.520Z,5.50
2023-02-15T07:43:35.632Z,5.70
2023-02-15T07:48:44.303Z,7.30
2023-02-15T07:53:52.942Z,5.30
2023-02-15T07:59:04.451Z,5.20
2023-02-15T08:04:16.582Z,5.10
2023-02-15T08:09:25.211Z,3.70
2023-02-15T08:14:34.325Z,3.40
2023-02-15T08:19:42.677Z,4.60
2023-02-15T08:24:51.632Z,6.20
2023-02-15T08:29:59.998Z,6.20
2023-02-15T08:35:09.115Z,8.30
2023-02-15T08:40:17.487Z,7.10
2023-02-15T08:45:26.910Z,7.80
2023-02-15T08:50:35.334Z,7.50
2023-02-15T08:55:46.216Z,6.80
2023-02-15T09:06:30.831Z,8.90
2023-02-15T09:11:41.326Z,9.50
2023-02-15T09:16:52.505Z,7.70
2023-02-15T09:22:01.764Z,7.80
2023-02-15T09:27:09.862Z,10.10
2023-02-15T09:32:20.445Z,9.80
2023-02-15T09:37:28.886Z,11.30
2023-02-15T09:43:10.580Z,9.90
2023-02-15T09:48:39.081Z,10.20
2023-02-15T09:54:07.186Z,10.20
2023-02-15T09:59:22.992Z,12.40
2023-02-15T10:04:43.740Z,10.00
2023-02-15T10:10:07.456Z,12.00
2023-02-15T10:15:27.600Z,10.80
2023-02-15T10:20:44.066Z,11.60
2023-02-15T10:26:02.373Z,9.40
2023-02-15T10:31:15.794Z,11.10
2023-02-15T10:36:36.231Z,11.30
2023-02-15T10:41:57.628Z,14.50
2023-02-15T10:47:32.500Z,14.30
2023-02-15T10:52:56.261Z,16.80
2023-02-15T10:58:12.222Z,12.90
2023-02-15T11:03:41.443Z,17.30
2023-02-15T11:08:56.175Z,17.60
2023-02-15T11:14:06.954Z,16.20
2023-02-15T11:19:23.074Z,15.00
2023-02-15T11:24:35.434Z,18.60
2023-02-15T11:29:52.036Z,20.10
2023-02-15T11:35:04.717Z,17.50
2023-02-15T11:40:23.652Z,18.40
2023-02-15T11:45:35.865Z,15.50
2023-02-15T11:50:44.751Z,17.70
2023-02-15T11:55:53.764Z,15.00
2023-02-15T12:01:12.954Z,18.20
2023-02-15T12:06:28.047Z,19.20
2023-02-15T12:11:40.486Z,18.40
2023-02-15T12:16:51.448Z,21.40
2023-02-15T12:22:00.379Z,21.40
2023-02-15T12:27:17.538Z,19.90
2023-02-15T12:32:30.266Z,24.40
2023-02-15T12:37:38.211Z,21.10
2023-02-15T12:42:49.845Z,20.00
2023-02-15T12:48:17.794Z,25.00
2023-02-15T12:53:33.863Z,30.20
2023-02-15T12:58:43.159Z,24.10
2023-02-15T13:04:02.142Z,33.90
2023-02-15T13:09:18.835Z,28.80
2023-02-15T13:14:32.741Z,25.50
2023-02-15T13:19:44.502Z,27.20
2023-02-15T13:24:56.355Z,27.10
2023-02-15T13:30:16.485Z,26.10
2023-02-15T13:35:26.543Z,20.80
2023-02-15T13:40:40.519Z,19.10
2023-02-15T13:46:04.573Z,26.20
2023-02-15T13:51:23.980Z,19.70
2023-02-15T13:56:43.103Z,24.20
2023-02-15T14:01:57.708Z,28.30
2023-02-15T14:07:31.715Z,25.60
2023-02-15T14:12:55.739Z,27.20
2023-02-15T14:18:23.614Z,28.90
2023-02-15T14:23:47.351Z,23.50
2023-02-15T14:29:06.374Z,22.50
2023-02-15T14:34:25.648Z,27.10
2023-02-15T14:40:01.913Z,23.90
2023-02-15T14:45:19.487Z,29.50
2023-02-15T14:50:48.707Z,23.40
2023-02-15T14:56:20.343Z,30.00
2023-02-15T15:01:33.784Z,32.40
2023-02-15T15:06:44.163Z,31.80
2023-02-15T15:11:53.946Z,31.60
2023-02-15T15:17:02.877Z,35.50
2023-02-15T15:22:20.148Z,34.10
2023-02-15T15:27:50.179Z,34.20
2023-02-15T15:33:07.286Z,31.00
2023-02-15T15:38:37.173Z,26.10
2023-02-15T15:44:35.188Z,24.10
2023-02-15T15:49:44.694Z,28.00
2023-02-15T15:54:58.493Z,32.90
2023-02-15T16:00:24.015Z,32.40
2023-02-15T16:05:37.858Z,42.70
2023-02-15T16:10:46.390Z,44.30
2023-02-15T16:15:56.543Z,55.30
2023-02-15T16:21:05.500Z,64.60
2023-02-15T16:26:22.544Z,81.70
2023-02-15T16:31:30.756Z,65.70
2023-02-15T16:36:39.383Z,70.20
2023-02-15T16:41:48.812Z,86.70
2023-02-15T16:46:58.314Z,91.10
2023-02-15T16:52:09.090Z,70.80
2023-02-15T16:57:24.901Z,89.20
2023-02-15T17:02:55.222Z,84.70
2023-02-15T17:08:21.154Z,83.40
2023-02-15T17:13:30.564Z,76.70
2023-02-15T17:18:47.102Z,66.50
2023-02-15T17:24:01.749Z,70.40
2023-02-15T17:29:26.898Z,74.20
2023-02-15T17:35:01.118Z,61.10
2023-02-15T17:40:21.620Z,57.50
2023-02-15T17:45:34.786Z,57.10
2023-02-15T17:50:42.990Z,60.10
2023-02-15T17:55:51.535Z,50.80
2023-02-15T18:01:20.259Z,66.70
2023-02-15T18:06:48.109Z,56.90
2023-02-15T18:11:56.427Z,50.20
2023-02-15T18:17:07.372Z,42.60
2023-02-15T18:22:17.468Z,49.90
2023-02-15T18:27:25.462Z,50.20
2023-02-15T18:32:38.669Z,49.00
2023-02-15T18:37:47.359Z,56.50
2023-02-15T18:42:57.613Z,49.10
2023-02-15T18:48:09.062Z,45.10
2023-02-15T18:53:22.368Z,50.50
2023-02-15T18:58:31.490Z,45.30
2023-02-15T19:03:39.304Z,47.20
2023-02-15T19:08:49.613Z,43.50
2023-02-15T19:13:57.420Z,47.20
2023-02-15T19:19:07.326Z,49.70
2023-02-15T19:24:21.025Z,48.00
2023-02-15T19:29:33.054Z,50.20
2023-02-15T19:34:42.175Z,59.00
2023-02-15T19:39:50.601Z,57.30
2023-02-15T19:44:58.693Z,74.60
2023-02-15T19:50:07.154Z,63.60
2023-02-15T19:55:26.637Z,77.60
2023-02-15T20:00:36.234Z,63.90
2023-02-15T20:05:45.451Z,68.30
2023-02-15T20:10:53.360Z,75.60
2023-02-15T20:16:05.750Z,74.10
2023-02-15T20:21:17.935Z,69.10
2023-02-15T20:26:30.496Z,56.10
2023-02-15T20:36:45.431Z,60.10
2023-02-15T20:41:53.893Z,70.00
2023-02-15T20:47:03.315Z,64.00
2023-02-15T20:52:22.493Z,71.80
2023-02-15T20:57:30.653Z,70.70
2023-02-15T21:02:38.700Z,65.80
2023-02-15T21:07:46.611Z,73.90
2023-02-15T21:12:55.771Z,68.70
2023-02-15T21:18:06.717Z,82.20
2023-02-15T21:23:18.937Z,68.90
2023-02-15T21:28:28.603Z,69.50
2023-02-15T21:33:37.025Z,79.70
2023-02-15T21:38:44.966Z,84.50
2023-02-15T21:44:10.506Z,80.20
2023-02-15T21:49:18.337Z,74.30
2023-02-15T21:54:26.285Z,86.10
2023-02-15T21:59:35.209Z,78.90
2023-02-15T22:04:43.137Z,76.70
2023-02-15T22:09:51.634Z,73.60
2023-02-15T22:14:59.814Z,83.70
2023-02-15T22:20:16.544Z,95.10
2023-02-15T22:25:27.498Z,85.50
2023-02-15T22:30:38.482Z,73.90
2023-02-15T22:35:46.554Z,79.60
2023-02-15T22:40:57.162Z,75.00
2023-02-15T22:46:08.107Z,71.80
2023-02-15T22:51:22.243Z,64.00
2023-02-15T22:56:38.780Z,71.70
2023-02-15T23:01:47.648Z,82.50
2023-02-15T23:06:57.996Z,79.50
2023-02-15T23:12:08.956Z,66.40
2023-02-15T23:17:16.704Z,73.30
2023-02-15T23:22:25.044Z,65.60
2023-02-15T23:27:50.420Z,68.00
2023-02-15T23:33:00.251Z,65.80
2023-02-15T23:38:08.632Z,66.90
2023-02-15T23:43:23.107Z,70.20
2023-02-15T23:48:35.956Z,71.00
2023-02-15T23:53:44.147Z,72.90
2023-02-15T23:58:52.591Z,65.90
